sensor_id;sensor_type;location;lat;lon;timestamp;P1;durP1;ratioP1;P2;durP2;ratioP2
12970;SDS011;6550;48.650;8.774;2023-05-07T00:00:25;4.73;;;1.87;;
12970;SDS011;6550;48.650;8.774;2023-05-07T00:02:54;6.90;;;1.63;;
12970;SDS011;6550;48.650;8.774;2023-05-07T00:05:21;3.30;;;1.70;;
12970;SDS011;6550;48.650;8.774;2023-05-07T00:07:52;1.63;;;1.40;;
12970;SDS011;6550;48.650;8.774;2023-05-07T00:10:25;2.85;;;1.60;;
12970;SDS011;6550;48.650;8.774;2023-05-07T00:12:54;4.13;;;1.63;;
12970;SDS011;6550;48.650;8.774;2023-05-07T00:15:21;2.13;;;2.00;;
12970;SDS011;6550;48.650;8.774;2023-05-07T00:17:48;3.07;;;1.80;;
12970;SDS011;6550;48.650;8.774;2023-05-07T00:20:17;1.43;;;1.33;;
12970;SDS011;6550;48.650;8.774;2023-05-07T00:22:44;3.27;;;1.80;;
12970;SDS011;6550;48.650;8.774;2023-05-07T00:25:13;3.97;;;2.00;;
12970;SDS011;6550;48.650;8.774;2023-05-07T00:27:40;2.93;;;1.80;;
12970;SDS011;6550;48.650;8.774;2023-05-07T00:30:07;1.93;;;1.60;;
12970;SDS011;6550;48.650;8.774;2023-05-07T00:32:34;7.00;;;1.70;;
12970;SDS011;6550;48.650;8.774;2023-05-07T00:35:05;1.97;;;1.40;;
12970;SDS011;6550;48.650;8.774;2023-05-07T00:37:36;1.40;;;1.30;;
12970;SDS011;6550;48.650;8.774;2023-05-07T00:40:05;3.20;;;1.80;;
12970;SDS011;6550;48.650;8.774;2023-05-07T00:42:34;1.83;;;1.70;;
12970;SDS011;6550;48.650;8.774;2023-05-07T00:45:03;1.63;;;1.40;;
12970;SDS011;6550;48.650;8.774;2023-05-07T00:47:30;2.70;;;1.63;;
12970;SDS011;6550;48.650;8.774;2023-05-07T00:49:57;1.83;;;1.63;;
12970;SDS011;6550;48.650;8.774;2023-05-07T00:52:27;1.73;;;1.63;;
12970;SDS011;6550;48.650;8.774;2023-05-07T00:54:54;2.13;;;1.47;;
12970;SDS011;6550;48.650;8.774;2023-05-07T00:57:21;2.22;;;1.70;;
12970;SDS011;6550;48.650;8.774;2023-05-07T00:59:52;1.60;;;1.50;;
12970;SDS011;6550;48.650;8.774;2023-05-07T01:02:21;3.60;;;1.70;;
12970;SDS011;6550;48.650;8.774;2023-05-07T01:04:50;1.80;;;1.70;;
12970;SDS011;6550;48.650;8.774;2023-05-07T01:07:19;2.07;;;1.87;;
12970;SDS011;6550;48.650;8.774;2023-05-07T01:09:49;5.83;;;1.87;;
12970;SDS011;6550;48.650;8.774;2023-05-07T01:12:16;1.93;;;1.63;;
12970;SDS011;6550;48.650;8.774;2023-05-07T01:14:43;1.87;;;1.70;;
12970;SDS011;6550;48.650;8.774;2023-05-07T01:17:10;2.47;;;1.60;;
12970;SDS011;6550;48.650;8.774;2023-05-07T01:19:39;1.70;;;1.60;;
12970;SDS011;6550;48.650;8.774;2023-05-07T01:22:09;1.93;;;1.50;;
12970;SDS011;6550;48.650;8.774;2023-05-07T01:24:37;6.33;;;1.73;;
12970;SDS011;6550;48.650;8.774;2023-05-07T01:27:07;2.37;;;1.87;;
12970;SDS011;6550;48.650;8.774;2023-05-07T01:29:34;1.70;;;1.60;;
12970;SDS011;6550;48.650;8.774;2023-05-07T01:32:01;2.85;;;1.92;;
12970;SDS011;6550;48.650;8.774;2023-05-07T01:34:30;4.03;;;2.10;;
12970;SDS011;6550;48.650;8.774;2023-05-07T01:36:59;1.83;;;1.70;;
12970;SDS011;6550;48.650;8.774;2023-05-07T01:39:29;1.73;;;1.63;;
12970;SDS011;6550;48.650;8.774;2023-05-07T01:41:56;2.53;;;1.77;;
12970;SDS011;6550;48.650;8.774;2023-05-07T01:44:25;7.80;;;2.00;;
12970;SDS011;6550;48.650;8.774;2023-05-07T01:46:58;3.63;;;1.77;;
12970;SDS011;6550;48.650;8.774;2023-05-07T01:49:27;3.13;;;2.10;;
12970;SDS011;6550;48.650;8.774;2023-05-07T01:51:54;1.80;;;1.70;;
12970;SDS011;6550;48.650;8.774;2023-05-07T01:54:25;1.93;;;1.70;;
12970;SDS011;6550;48.650;8.774;2023-05-07T01:56:55;2.07;;;1.80;;
12970;SDS011;6550;48.650;8.774;2023-05-07T01:59:25;3.20;;;1.80;;
12970;SDS011;6550;48.650;8.774;2023-05-07T02:01:51;2.90;;;2.00;;
12970;SDS011;6550;48.650;8.774;2023-05-07T02:04:18;2.75;;;1.92;;
12970;SDS011;6550;48.650;8.774;2023-05-07T02:06:45;3.30;;;1.80;;
12970;SDS011;6550;48.650;8.774;2023-05-07T02:09:13;1.60;;;1.50;;
12970;SDS011;6550;48.650;8.774;2023-05-07T02:11:46;2.53;;;1.77;;
12970;SDS011;6550;48.650;8.774;2023-05-07T02:14:12;5.00;;;1.67;;
12970;SDS011;6550;48.650;8.774;2023-05-07T02:16:39;3.97;;;1.87;;
12970;SDS011;6550;48.650;8.774;2023-05-07T02:19:06;8.00;;;1.60;;
12970;SDS011;6550;48.650;8.774;2023-05-07T02:21:35;4.30;;;1.97;;
12970;SDS011;6550;48.650;8.774;2023-05-07T02:24:06;3.50;;;1.70;;
12970;SDS011;6550;48.650;8.774;2023-05-07T02:26:33;2.00;;;1.80;;
12970;SDS011;6550;48.650;8.774;2023-05-07T02:29:00;2.77;;;2.13;;
12970;SDS011;6550;48.650;8.774;2023-05-07T02:31:29;3.60;;;1.67;;
12970;SDS011;6550;48.650;8.774;2023-05-07T02:33:56;1.90;;;1.57;;
12970;SDS011;6550;48.650;8.774;2023-05-07T02:36:25;3.23;;;1.73;;
12970;SDS011;6550;48.650;8.774;2023-05-07T02:38:54;2.27;;;1.80;;
12970;SDS011;6550;48.650;8.774;2023-05-07T02:41:21;3.57;;;2.10;;
12970;SDS011;6550;48.650;8.774;2023-05-07T02:43:48;2.07;;;1.87;;
12970;SDS011;6550;48.650;8.774;2023-05-07T02:46:14;5.33;;;1.90;;
12970;SDS011;6550;48.650;8.774;2023-05-07T02:48:43;2.90;;;1.80;;
12970;SDS011;6550;48.650;8.774;2023-05-07T02:51:13;3.10;;;1.60;;
12970;SDS011;6550;48.650;8.774;2023-05-07T02:53:40;2.90;;;2.00;;
12970;SDS011;6550;48.650;8.774;2023-05-07T02:56:07;2.40;;;1.90;;
12970;SDS011;6550;48.650;8.774;2023-05-07T02:58:33;7.10;;;1.83;;
12970;SDS011;6550;48.650;8.774;2023-05-07T03:01:00;2.03;;;1.90;;
12970;SDS011;6550;48.650;8.774;2023-05-07T03:03:27;3.47;;;1.53;;
12970;SDS011;6550;48.650;8.774;2023-05-07T03:05:57;3.80;;;2.00;;
12970;SDS011;6550;48.650;8.774;2023-05-07T03:08:24;2.30;;;2.10;;
12970;SDS011;6550;48.650;8.774;2023-05-07T03:10:53;2.30;;;1.73;;
12970;SDS011;6550;48.650;8.774;2023-05-07T03:13:22;3.87;;;1.80;;
12970;SDS011;6550;48.650;8.774;2023-05-07T03:15:49;1.97;;;1.77;;
12970;SDS011;6550;48.650;8.774;2023-05-07T03:18:18;1.90;;;1.80;;
12970;SDS011;6550;48.650;8.774;2023-05-07T03:20:48;3.40;;;1.73;;
12970;SDS011;6550;48.650;8.774;2023-05-07T03:23:17;3.83;;;1.77;;
12970;SDS011;6550;48.650;8.774;2023-05-07T03:25:44;2.07;;;1.57;;
12970;SDS011;6550;48.650;8.774;2023-05-07T03:28:13;4.13;;;1.60;;
12970;SDS011;6550;48.650;8.774;2023-05-07T03:30:40;2.17;;;1.70;;
12970;SDS011;6550;48.650;8.774;2023-05-07T03:33:06;4.33;;;1.97;;
12970;SDS011;6550;48.650;8.774;2023-05-07T03:35:33;2.57;;;2.00;;
12970;SDS011;6550;48.650;8.774;2023-05-07T03:38:04;2.70;;;1.90;;
12970;SDS011;6550;48.650;8.774;2023-05-07T03:40:33;3.60;;;1.93;;
12970;SDS011;6550;48.650;8.774;2023-05-07T03:43:00;2.00;;;1.57;;
12970;SDS011;6550;48.650;8.774;2023-05-07T03:45:27;2.00;;;1.80;;
12970;SDS011;6550;48.650;8.774;2023-05-07T03:47:56;2.20;;;1.80;;
12970;SDS011;6550;48.650;8.774;2023-05-07T03:50:22;2.30;;;1.80;;
12970;SDS011;6550;48.650;8.774;2023-05-07T03:52:51;3.10;;;1.77;;
12970;SDS011;6550;48.650;8.774;2023-05-07T03:55:18;1.90;;;1.70;;
12970;SDS011;6550;48.650;8.774;2023-05-07T03:57:45;2.40;;;1.73;;
12970;SDS011;6550;48.650;8.774;2023-05-07T04:00:12;2.57;;;2.00;;
12970;SDS011;6550;48.650;8.774;2023-05-07T04:02:39;2.67;;;1.63;;
12970;SDS011;6550;48.650;8.774;2023-05-07T04:05:06;3.95;;;2.13;;
12970;SDS011;6550;48.650;8.774;2023-05-07T04:07:35;2.20;;;1.80;;
12970;SDS011;6550;48.650;8.774;2023-05-07T04:10:02;3.50;;;1.93;;
12970;SDS011;6550;48.650;8.774;2023-05-07T04:12:31;3.47;;;2.30;;
12970;SDS011;6550;48.650;8.774;2023-05-07T04:15:00;2.17;;;1.93;;
12970;SDS011;6550;48.650;8.774;2023-05-07T04:17:29;4.10;;;1.70;;
12970;SDS011;6550;48.650;8.774;2023-05-07T04:19:56;3.23;;;1.67;;
12970;SDS011;6550;48.650;8.774;2023-05-07T04:22:23;2.72;;;1.80;;
12970;SDS011;6550;48.650;8.774;2023-05-07T04:24:50;4.33;;;2.13;;
12970;SDS011;6550;48.650;8.774;2023-05-07T04:27:21;2.80;;;1.70;;
12970;SDS011;6550;48.650;8.774;2023-05-07T04:29:48;2.43;;;1.67;;
12970;SDS011;6550;48.650;8.774;2023-05-07T04:32:15;3.27;;;1.60;;
12970;SDS011;6550;48.650;8.774;2023-05-07T04:34:42;2.30;;;1.70;;
12970;SDS011;6550;48.650;8.774;2023-05-07T04:37:09;4.50;;;1.83;;
12970;SDS011;6550;48.650;8.774;2023-05-07T04:39:38;5.87;;;1.60;;
12970;SDS011;6550;48.650;8.774;2023-05-07T04:42:05;1.80;;;1.70;;
12970;SDS011;6550;48.650;8.774;2023-05-07T04:44:37;4.00;;;1.70;;
12970;SDS011;6550;48.650;8.774;2023-05-07T04:47:04;1.80;;;1.70;;
12970;SDS011;6550;48.650;8.774;2023-05-07T04:49:31;3.87;;;2.13;;
12970;SDS011;6550;48.650;8.774;2023-05-07T04:52:00;3.53;;;1.97;;
12970;SDS011;6550;48.650;8.774;2023-05-07T04:54:29;2.13;;;1.90;;
12970;SDS011;6550;48.650;8.774;2023-05-07T04:56:56;2.40;;;1.90;;
12970;SDS011;6550;48.650;8.774;2023-05-07T04:59:23;2.22;;;1.80;;
12970;SDS011;6550;48.650;8.774;2023-05-07T05:01:52;1.70;;;1.60;;
12970;SDS011;6550;48.650;8.774;2023-05-07T05:04:22;2.10;;;1.90;;
12970;SDS011;6550;48.650;8.774;2023-05-07T05:06:49;5.37;;;1.90;;
12970;SDS011;6550;48.650;8.774;2023-05-07T05:09:18;2.47;;;2.00;;
12970;SDS011;6550;48.650;8.774;2023-05-07T05:11:47;2.40;;;2.20;;
12970;SDS011;6550;48.650;8.774;2023-05-07T05:14:18;5.43;;;2.10;;
12970;SDS011;6550;48.650;8.774;2023-05-07T05:16:45;2.13;;;1.80;;
12970;SDS011;6550;48.650;8.774;2023-05-07T05:19:14;3.97;;;2.00;;
12970;SDS011;6550;48.650;8.774;2023-05-07T05:21:43;4.50;;;1.87;;
12970;SDS011;6550;48.650;8.774;2023-05-07T05:24:10;6.27;;;2.10;;
12970;SDS011;6550;48.650;8.774;2023-05-07T05:26:37;2.43;;;2.10;;
12970;SDS011;6550;48.650;8.774;2023-05-07T05:29:08;4.30;;;1.90;;
12970;SDS011;6550;48.650;8.774;2023-05-07T05:31:35;2.63;;;2.03;;
12970;SDS011;6550;48.650;8.774;2023-05-07T05:34:02;2.42;;;2.25;;
12970;SDS011;6550;48.650;8.774;2023-05-07T05:36:30;4.83;;;2.03;;
12970;SDS011;6550;48.650;8.774;2023-05-07T05:38:59;2.00;;;1.90;;
12970;SDS011;6550;48.650;8.774;2023-05-07T05:41:25;2.53;;;2.10;;
12970;SDS011;6550;48.650;8.774;2023-05-07T05:43:52;4.00;;;2.00;;
12970;SDS011;6550;48.650;8.774;2023-05-07T05:46:22;3.23;;;2.10;;
12970;SDS011;6550;48.650;8.774;2023-05-07T05:48:51;3.70;;;2.07;;
12970;SDS011;6550;48.650;8.774;2023-05-07T05:51:20;3.57;;;2.00;;
12970;SDS011;6550;48.650;8.774;2023-05-07T05:53:49;3.10;;;2.35;;
12970;SDS011;6550;48.650;8.774;2023-05-07T05:56:16;2.73;;;2.53;;
12970;SDS011;6550;48.650;8.774;2023-05-07T05:58:43;2.63;;;2.40;;
12970;SDS011;6550;48.650;8.774;2023-05-07T06:01:10;2.27;;;2.07;;
12970;SDS011;6550;48.650;8.774;2023-05-07T06:03:38;2.23;;;2.03;;
12970;SDS011;6550;48.650;8.774;2023-05-07T06:06:04;3.10;;;2.47;;
12970;SDS011;6550;48.650;8.774;2023-05-07T06:08:31;2.80;;;2.17;;
12970;SDS011;6550;48.650;8.774;2023-05-07T06:10:58;4.25;;;2.45;;
12970;SDS011;6550;48.650;8.774;2023-05-07T06:13:26;2.60;;;2.07;;
12970;SDS011;6550;48.650;8.774;2023-05-07T06:15:53;2.70;;;2.10;;
12970;SDS011;6550;48.650;8.774;2023-05-07T06:18:19;2.00;;;1.80;;
12970;SDS011;6550;48.650;8.774;2023-05-07T06:20:49;2.30;;;2.10;;
12970;SDS011;6550;48.650;8.774;2023-05-07T06:23:15;2.23;;;1.93;;
12970;SDS011;6550;48.650;8.774;2023-05-07T06:25:48;2.00;;;1.63;;
12970;SDS011;6550;48.650;8.774;2023-05-07T06:28:21;3.30;;;2.20;;
12970;SDS011;6550;48.650;8.774;2023-05-07T06:30:50;1.80;;;1.70;;
12970;SDS011;6550;48.650;8.774;2023-05-07T06:33:19;2.20;;;1.83;;
12970;SDS011;6550;48.650;8.774;2023-05-07T06:35:51;3.00;;;1.60;;
12970;SDS011;6550;48.650;8.774;2023-05-07T06:38:17;3.00;;;1.80;;
12970;SDS011;6550;48.650;8.774;2023-05-07T06:40:47;3.00;;;2.03;;
12970;SDS011;6550;48.650;8.774;2023-05-07T06:43:15;2.20;;;1.97;;
12970;SDS011;6550;48.650;8.774;2023-05-07T06:45:42;2.83;;;2.30;;
12970;SDS011;6550;48.650;8.774;2023-05-07T06:48:11;4.83;;;2.10;;
12970;SDS011;6550;48.650;8.774;2023-05-07T06:50:38;1.80;;;1.70;;
12970;SDS011;6550;48.650;8.774;2023-05-07T06:53:05;2.30;;;2.00;;
12970;SDS011;6550;48.650;8.774;2023-05-07T06:55:34;2.03;;;1.90;;
12970;SDS011;6550;48.650;8.774;2023-05-07T06:58:06;2.23;;;2.00;;
12970;SDS011;6550;48.650;8.774;2023-05-07T07:00:33;2.20;;;2.00;;
12970;SDS011;6550;48.650;8.774;2023-05-07T07:03:01;2.10;;;1.67;;
12970;SDS011;6550;48.650;8.774;2023-05-07T07:05:30;3.03;;;1.67;;
12970;SDS011;6550;48.650;8.774;2023-05-07T07:07:59;2.60;;;2.03;;
12970;SDS011;6550;48.650;8.774;2023-05-07T07:10:26;2.50;;;1.83;;
12970;SDS011;6550;48.650;8.774;2023-05-07T07:12:53;2.33;;;1.60;;
12970;SDS011;6550;48.650;8.774;2023-05-07T07:15:20;2.67;;;1.50;;
12970;SDS011;6550;48.650;8.774;2023-05-07T07:17:51;1.73;;;1.40;;
12970;SDS011;6550;48.650;8.774;2023-05-07T07:20:20;2.37;;;1.73;;
12970;SDS011;6550;48.650;8.774;2023-05-07T07:22:49;1.83;;;1.70;;
12970;SDS011;6550;48.650;8.774;2023-05-07T07:25:18;2.23;;;1.70;;
12970;SDS011;6550;48.650;8.774;2023-05-07T07:27:48;1.60;;;1.50;;
12970;SDS011;6550;48.650;8.774;2023-05-07T07:30:15;2.87;;;1.70;;
12970;SDS011;6550;48.650;8.774;2023-05-07T07:32:42;1.77;;;1.57;;
12970;SDS011;6550;48.650;8.774;2023-05-07T07:35:09;1.70;;;1.60;;
12970;SDS011;6550;48.650;8.774;2023-05-07T07:37:36;2.13;;;1.93;;
12970;SDS011;6550;48.650;8.774;2023-05-07T07:40:05;2.93;;;1.93;;
12970;SDS011;6550;48.650;8.774;2023-05-07T07:42:35;4.40;;;1.70;;
12970;SDS011;6550;48.650;8.774;2023-05-07T07:45:04;1.70;;;1.60;;
12970;SDS011;6550;48.650;8.774;2023-05-07T07:47:31;1.67;;;1.57;;
12970;SDS011;6550;48.650;8.774;2023-05-07T07:49:58;2.80;;;2.00;;
12970;SDS011;6550;48.650;8.774;2023-05-07T07:52:24;1.77;;;1.67;;
12970;SDS011;6550;48.650;8.774;2023-05-07T07:54:51;2.43;;;1.93;;
12970;SDS011;6550;48.650;8.774;2023-05-07T07:57:20;2.53;;;1.70;;
12970;SDS011;6550;48.650;8.774;2023-05-07T07:59:50;2.10;;;1.90;;
12970;SDS011;6550;48.650;8.774;2023-05-07T08:02:19;4.23;;;1.90;;
12970;SDS011;6550;48.650;8.774;2023-05-07T08:04:49;8.07;;;1.80;;
12970;SDS011;6550;48.650;8.774;2023-05-07T08:07:18;2.40;;;1.80;;
12970;SDS011;6550;48.650;8.774;2023-05-07T08:09:50;3.75;;;1.73;;
12970;SDS011;6550;48.650;8.774;2023-05-07T08:12:16;1.97;;;1.60;;
12970;SDS011;6550;48.650;8.774;2023-05-07T08:14:43;2.93;;;1.90;;
12970;SDS011;6550;48.650;8.774;2023-05-07T08:17:10;2.63;;;1.70;;
12970;SDS011;6550;48.650;8.774;2023-05-07T08:19:42;2.28;;;1.90;;
12970;SDS011;6550;48.650;8.774;2023-05-07T08:22:09;2.73;;;1.90;;
12970;SDS011;6550;48.650;8.774;2023-05-07T08:24:36;2.50;;;1.80;;
12970;SDS011;6550;48.650;8.774;2023-05-07T08:27:08;2.50;;;1.97;;
12970;SDS011;6550;48.650;8.774;2023-05-07T08:29:34;4.80;;;1.90;;
12970;SDS011;6550;48.650;8.774;2023-05-07T08:32:03;3.23;;;1.90;;
12970;SDS011;6550;48.650;8.774;2023-05-07T08:34:30;2.70;;;1.90;;
12970;SDS011;6550;48.650;8.774;2023-05-07T08:36:57;2.30;;;1.67;;
12970;SDS011;6550;48.650;8.774;2023-05-07T08:39:24;2.00;;;1.90;;
12970;SDS011;6550;48.650;8.774;2023-05-07T08:41:54;1.93;;;1.80;;
12970;SDS011;6550;48.650;8.774;2023-05-07T08:44:23;2.33;;;2.03;;
12970;SDS011;6550;48.650;8.774;2023-05-07T08:46:54;2.30;;;2.10;;
12970;SDS011;6550;48.650;8.774;2023-05-07T08:49:24;2.87;;;2.03;;
12970;SDS011;6550;48.650;8.774;2023-05-07T08:51:54;2.03;;;1.80;;
12970;SDS011;6550;48.650;8.774;2023-05-07T08:54:21;5.27;;;1.87;;
12970;SDS011;6550;48.650;8.774;2023-05-07T08:56:51;2.20;;;2.00;;
12970;SDS011;6550;48.650;8.774;2023-05-07T08:59:20;2.20;;;1.60;;
12970;SDS011;6550;48.650;8.774;2023-05-07T09:01:49;3.23;;;2.37;;
12970;SDS011;6550;48.650;8.774;2023-05-07T09:04:18;2.47;;;2.27;;
12970;SDS011;6550;48.650;8.774;2023-05-07T09:06:45;2.33;;;1.87;;
12970;SDS011;6550;48.650;8.774;2023-05-07T09:09:14;2.00;;;1.80;;
12970;SDS011;6550;48.650;8.774;2023-05-07T09:11:46;2.60;;;1.98;;
12970;SDS011;6550;48.650;8.774;2023-05-07T09:14:13;2.00;;;1.80;;
12970;SDS011;6550;48.650;8.774;2023-05-07T09:16:40;2.47;;;1.70;;
12970;SDS011;6550;48.650;8.774;2023-05-07T09:19:06;1.83;;;1.67;;
12970;SDS011;6550;48.650;8.774;2023-05-07T09:21:36;4.90;;;1.77;;
12970;SDS011;6550;48.650;8.774;2023-05-07T09:24:02;3.70;;;2.10;;
12970;SDS011;6550;48.650;8.774;2023-05-07T09:26:32;5.20;;;1.50;;
12970;SDS011;6550;48.650;8.774;2023-05-07T09:29:03;2.77;;;1.33;;
12970;SDS011;6550;48.650;8.774;2023-05-07T09:31:30;1.80;;;1.30;;
12970;SDS011;6550;48.650;8.774;2023-05-07T09:34:04;1.90;;;1.30;;
12970;SDS011;6550;48.650;8.774;2023-05-07T09:36:31;1.70;;;1.60;;
12970;SDS011;6550;48.650;8.774;2023-05-07T09:38:59;2.80;;;1.57;;
12970;SDS011;6550;48.650;8.774;2023-05-07T09:41:26;2.20;;;1.30;;
12970;SDS011;6550;48.650;8.774;2023-05-07T09:43:53;2.47;;;1.23;;
12970;SDS011;6550;48.650;8.774;2023-05-07T09:46:21;1.90;;;1.20;;
12970;SDS011;6550;48.650;8.774;2023-05-07T09:48:53;3.60;;;1.60;;
12970;SDS011;6550;48.650;8.774;2023-05-07T09:51:29;1.63;;;1.37;;
12970;SDS011;6550;48.650;8.774;2023-05-07T09:54:17;6.47;;;1.40;;
12970;SDS011;6550;48.650;8.774;2023-05-07T09:56:44;3.45;;;1.60;;
12970;SDS011;6550;48.650;8.774;2023-05-07T09:59:15;3.43;;;1.40;;
12970;SDS011;6550;48.650;8.774;2023-05-07T10:01:45;2.60;;;1.30;;
12970;SDS011;6550;48.650;8.774;2023-05-07T10:04:14;2.47;;;1.57;;
12970;SDS011;6550;48.650;8.774;2023-05-07T10:06:44;1.50;;;1.40;;
12970;SDS011;6550;48.650;8.774;2023-05-07T10:09:14;2.30;;;1.60;;
12970;SDS011;6550;48.650;8.774;2023-05-07T10:11:43;1.30;;;1.20;;
12970;SDS011;6550;48.650;8.774;2023-05-07T10:14:13;2.40;;;1.83;;
12970;SDS011;6550;48.650;8.774;2023-05-07T10:16:41;2.73;;;2.13;;
12970;SDS011;6550;48.650;8.774;2023-05-07T10:19:10;2.37;;;1.70;;
12970;SDS011;6550;48.650;8.774;2023-05-07T10:21:42;2.40;;;1.50;;
12970;SDS011;6550;48.650;8.774;2023-05-07T10:24:27;1.50;;;1.30;;
12970;SDS011;6550;48.650;8.774;2023-05-07T10:26:59;2.57;;;1.60;;
12970;SDS011;6550;48.650;8.774;2023-05-07T10:29:37;3.93;;;1.57;;
12970;SDS011;6550;48.650;8.774;2023-05-07T10:35:02;2.20;;;1.53;;
12970;SDS011;6550;48.650;8.774;2023-05-07T10:37:32;2.03;;;1.40;;
12970;SDS011;6550;48.650;8.774;2023-05-07T10:40:02;3.87;;;1.80;;
12970;SDS011;6550;48.650;8.774;2023-05-07T10:42:34;2.70;;;1.60;;
12970;SDS011;6550;48.650;8.774;2023-05-07T10:45:13;1.60;;;1.37;;
12970;SDS011;6550;48.650;8.774;2023-05-07T10:50:44;3.23;;;1.30;;
12970;SDS011;6550;48.650;8.774;2023-05-07T10:55:43;4.67;;;2.70;;
12970;SDS011;6550;48.650;8.774;2023-05-07T10:58:29;2.50;;;1.80;;
12970;SDS011;6550;48.650;8.774;2023-05-07T11:00:59;3.80;;;1.80;;
12970;SDS011;6550;48.650;8.774;2023-05-07T11:03:29;2.17;;;1.60;;
12970;SDS011;6550;48.650;8.774;2023-05-07T11:08:54;2.23;;;1.30;;
12970;SDS011;6550;48.650;8.774;2023-05-07T11:14:14;2.23;;;1.33;;
12970;SDS011;6550;48.650;8.774;2023-05-07T11:17:07;1.47;;;1.30;;
12970;SDS011;6550;48.650;8.774;2023-05-07T11:19:51;3.33;;;1.47;;
12970;SDS011;6550;48.650;8.774;2023-05-07T11:22:35;3.23;;;1.57;;
12970;SDS011;6550;48.650;8.774;2023-05-07T11:25:10;4.17;;;2.83;;
12970;SDS011;6550;48.650;8.774;2023-05-07T11:27:45;6.97;;;6.23;;
12970;SDS011;6550;48.650;8.774;2023-05-07T11:30:20;10.50;;;7.30;;
12970;SDS011;6550;48.650;8.774;2023-05-07T11:32:48;5.93;;;4.30;;
12970;SDS011;6550;48.650;8.774;2023-05-07T11:35:15;2.77;;;2.50;;
12970;SDS011;6550;48.650;8.774;2023-05-07T11:37:44;3.37;;;1.87;;
12970;SDS011;6550;48.650;8.774;2023-05-07T11:40:13;2.57;;;1.90;;
12970;SDS011;6550;48.650;8.774;2023-05-07T11:42:40;2.30;;;1.33;;
12970;SDS011;6550;48.650;8.774;2023-05-07T11:45:09;2.03;;;1.40;;
12970;SDS011;6550;48.650;8.774;2023-05-07T11:47:36;3.43;;;1.40;;
12970;SDS011;6550;48.650;8.774;2023-05-07T11:50:09;2.03;;;1.40;;
12970;SDS011;6550;48.650;8.774;2023-05-07T11:52:37;3.33;;;1.77;;
12970;SDS011;6550;48.650;8.774;2023-05-07T11:55:06;4.05;;;1.70;;
12970;SDS011;6550;48.650;8.774;2023-05-07T11:57:34;4.50;;;1.40;;
12970;SDS011;6550;48.650;8.774;2023-05-07T12:00:03;3.27;;;2.00;;
12970;SDS011;6550;48.650;8.774;2023-05-07T12:02:31;3.90;;;1.63;;
12970;SDS011;6550;48.650;8.774;2023-05-07T12:05:00;4.70;;;1.63;;
12970;SDS011;6550;48.650;8.774;2023-05-07T12:07:26;2.40;;;1.30;;
12970;SDS011;6550;48.650;8.774;2023-05-07T12:09:53;1.90;;;1.73;;
12970;SDS011;6550;48.650;8.774;2023-05-07T12:12:20;1.67;;;1.57;;
12970;SDS011;6550;48.650;8.774;2023-05-07T12:14:47;3.27;;;1.53;;
12970;SDS011;6550;48.650;8.774;2023-05-07T12:17:14;2.87;;;1.70;;
12970;SDS011;6550;48.650;8.774;2023-05-07T12:19:43;2.43;;;1.50;;
12970;SDS011;6550;48.650;8.774;2023-05-07T12:22:11;2.50;;;1.50;;
12970;SDS011;6550;48.650;8.774;2023-05-07T12:27:32;2.92;;;1.80;;
12970;SDS011;6550;48.650;8.774;2023-05-07T12:30:02;2.20;;;1.40;;
12970;SDS011;6550;48.650;8.774;2023-05-07T12:32:32;2.80;;;1.43;;
12970;SDS011;6550;48.650;8.774;2023-05-07T12:35:02;3.17;;;1.70;;
12970;SDS011;6550;48.650;8.774;2023-05-07T12:37:32;1.77;;;1.67;;
12970;SDS011;6550;48.650;8.774;2023-05-07T12:40:05;3.47;;;1.40;;
12970;SDS011;6550;48.650;8.774;2023-05-07T12:42:35;2.17;;;1.70;;
12970;SDS011;6550;48.650;8.774;2023-05-07T12:45:15;3.67;;;1.90;;
12970;SDS011;6550;48.650;8.774;2023-05-07T12:47:46;2.90;;;1.67;;
12970;SDS011;6550;48.650;8.774;2023-05-07T12:50:16;1.63;;;1.53;;
12970;SDS011;6550;48.650;8.774;2023-05-07T12:52:43;4.27;;;1.70;;
12970;SDS011;6550;48.650;8.774;2023-05-07T12:55:12;2.43;;;1.33;;
12970;SDS011;6550;48.650;8.774;2023-05-07T12:57:45;2.47;;;1.50;;
12970;SDS011;6550;48.650;8.774;2023-05-07T13:00:14;5.60;;;2.00;;
12970;SDS011;6550;48.650;8.774;2023-05-07T13:02:43;3.20;;;1.50;;
12970;SDS011;6550;48.650;8.774;2023-05-07T13:05:11;3.80;;;1.90;;
12970;SDS011;6550;48.650;8.774;2023-05-07T13:07:39;2.80;;;1.53;;
12970;SDS011;6550;48.650;8.774;2023-05-07T13:10:07;2.53;;;1.60;;
12970;SDS011;6550;48.650;8.774;2023-05-07T13:12:36;4.10;;;1.93;;
12970;SDS011;6550;48.650;8.774;2023-05-07T13:15:03;2.20;;;1.70;;
12970;SDS011;6550;48.650;8.774;2023-05-07T13:17:30;2.30;;;1.67;;
12970;SDS011;6550;48.650;8.774;2023-05-07T13:20:00;2.83;;;1.92;;
12970;SDS011;6550;48.650;8.774;2023-05-07T13:22:26;2.40;;;1.73;;
12970;SDS011;6550;48.650;8.774;2023-05-07T13:24:53;2.60;;;1.80;;
12970;SDS011;6550;48.650;8.774;2023-05-07T13:27:20;6.40;;;1.93;;
12970;SDS011;6550;48.650;8.774;2023-05-07T13:29:46;2.80;;;1.83;;
12970;SDS011;6550;48.650;8.774;2023-05-07T13:32:13;2.83;;;2.10;;
12970;SDS011;6550;48.650;8.774;2023-05-07T13:34:43;2.93;;;2.20;;
12970;SDS011;6550;48.650;8.774;2023-05-07T13:37:09;6.30;;;3.00;;
12970;SDS011;6550;48.650;8.774;2023-05-07T13:39:38;6.13;;;3.23;;
12970;SDS011;6550;48.650;8.774;2023-05-07T13:42:07;5.90;;;4.13;;
12970;SDS011;6550;48.650;8.774;2023-05-07T13:44:36;5.37;;;4.10;;
12970;SDS011;6550;48.650;8.774;2023-05-07T13:47:03;6.17;;;4.27;;
12970;SDS011;6550;48.650;8.774;2023-05-07T13:49:37;5.20;;;3.57;;
12970;SDS011;6550;48.650;8.774;2023-05-07T13:52:04;6.87;;;3.10;;
12970;SDS011;6550;48.650;8.774;2023-05-07T13:54:31;5.07;;;3.17;;
12970;SDS011;6550;48.650;8.774;2023-05-07T13:57:00;4.83;;;2.40;;
12970;SDS011;6550;48.650;8.774;2023-05-07T13:59:27;3.63;;;2.47;;
12970;SDS011;6550;48.650;8.774;2023-05-07T14:01:54;3.97;;;2.27;;
12970;SDS011;6550;48.650;8.774;2023-05-07T14:04:26;3.47;;;2.70;;
12970;SDS011;6550;48.650;8.774;2023-05-07T14:06:53;5.03;;;3.20;;
12970;SDS011;6550;48.650;8.774;2023-05-07T14:09:19;4.43;;;2.83;;
12970;SDS011;6550;48.650;8.774;2023-05-07T14:11:46;7.47;;;3.23;;
12970;SDS011;6550;48.650;8.774;2023-05-07T14:14:17;3.07;;;2.50;;
12970;SDS011;6550;48.650;8.774;2023-05-07T14:16:44;3.73;;;2.60;;
12970;SDS011;6550;48.650;8.774;2023-05-07T14:19:16;3.63;;;2.50;;
12970;SDS011;6550;48.650;8.774;2023-05-07T14:21:43;4.17;;;2.50;;
12970;SDS011;6550;48.650;8.774;2023-05-07T14:24:09;2.73;;;2.13;;
12970;SDS011;6550;48.650;8.774;2023-05-07T14:26:38;5.40;;;2.50;;
12970;SDS011;6550;48.650;8.774;2023-05-07T14:29:05;4.20;;;2.03;;
12970;SDS011;6550;48.650;8.774;2023-05-07T14:31:34;3.37;;;1.83;;
12970;SDS011;6550;48.650;8.774;2023-05-07T14:34:01;6.67;;;2.70;;
12970;SDS011;6550;48.650;8.774;2023-05-07T14:36:28;4.43;;;2.67;;
12970;SDS011;6550;48.650;8.774;2023-05-07T14:38:56;6.67;;;2.80;;
12970;SDS011;6550;48.650;8.774;2023-05-07T14:41:25;3.53;;;2.43;;
12970;SDS011;6550;48.650;8.774;2023-05-07T14:43:52;4.20;;;2.47;;
12970;SDS011;6550;48.650;8.774;2023-05-07T14:46:24;2.43;;;2.20;;
12970;SDS011;6550;48.650;8.774;2023-05-07T14:48:54;4.67;;;2.40;;
12970;SDS011;6550;48.650;8.774;2023-05-07T14:51:25;3.60;;;2.57;;
12970;SDS011;6550;48.650;8.774;2023-05-07T14:53:54;2.53;;;2.20;;
12970;SDS011;6550;48.650;8.774;2023-05-07T14:56:21;2.47;;;2.20;;
12970;SDS011;6550;48.650;8.774;2023-05-07T14:58:50;5.13;;;2.22;;
12970;SDS011;6550;48.650;8.774;2023-05-07T15:01:22;4.03;;;2.10;;
12970;SDS011;6550;48.650;8.774;2023-05-07T15:03:55;4.60;;;2.00;;
12970;SDS011;6550;48.650;8.774;2023-05-07T15:06:22;2.63;;;2.43;;
12970;SDS011;6550;48.650;8.774;2023-05-07T15:08:49;5.33;;;2.43;;
12970;SDS011;6550;48.650;8.774;2023-05-07T15:11:18;3.67;;;2.30;;
12970;SDS011;6550;48.650;8.774;2023-05-07T15:13:47;4.30;;;2.03;;
12970;SDS011;6550;48.650;8.774;2023-05-07T15:16:18;2.43;;;1.83;;
12970;SDS011;6550;48.650;8.774;2023-05-07T15:18:47;2.33;;;1.73;;
12970;SDS011;6550;48.650;8.774;2023-05-07T15:21:16;2.60;;;1.90;;
12970;SDS011;6550;48.650;8.774;2023-05-07T15:23:45;1.77;;;1.67;;
12970;SDS011;6550;48.650;8.774;2023-05-07T15:26:12;1.80;;;1.70;;